createdAt,value
2018-09-29T00:01:02.060Z,12.51
2018-09-29T00:03:31.529Z,12.41
2018-09-29T00:06:01.639Z,12.36
2018-09-29T00:08:31.345Z,12.36
2018-09-29T00:11:00.512Z,12.42
2018-09-29T00:13:30.528Z,12.12
2018-09-29T00:16:00.928Z,12.42
2018-09-29T00:18:32.519Z,12.39
2018-09-29T00:21:02.900Z,12.45
2018-09-29T00:23:32.362Z,12.45
2018-09-29T00:26:02.661Z,12.50
2018-09-29T00:28:32.094Z,12.34
2018-09-29T00:31:02.747Z,12.34
2018-09-29T00:33:33.034Z,12.39
2018-09-29T00:36:03.558Z,12.34
2018-09-29T00:38:33.588Z,12.35
2018-09-29T00:41:04.289Z,12.44
2018-09-29T00:43:33.630Z,12.50
2018-09-29T00:46:03.542Z,12.48
2018-09-29T00:48:33.459Z,12.45
2018-09-29T00:51:02.905Z,12.46
2018-09-29T00:53:32.330Z,12.44
2018-09-29T00:56:02.181Z,12.43
2018-09-29T00:58:32.138Z,12.38
2018-09-29T01:01:01.870Z,12.31
2018-09-29T01:03:31.804Z,12.31
2018-09-29T01:06:01.667Z,12.30
2018-09-29T01:08:30.955Z,12.17
2018-09-29T01:11:03.683Z,12.04
2018-09-29T01:13:33.131Z,11.90
2018-09-29T01:16:03.004Z,11.80
2018-09-29T01:18:32.691Z,11.64
2018-09-29T01:21:04.036Z,11.54
2018-09-29T01:23:35.121Z,11.53
2018-09-29T01:26:05.833Z,11.56
2018-09-29T01:28:36.566Z,11.58
2018-09-29T01:31:07.558Z,11.53
2018-09-29T01:33:37.858Z,11.58
2018-09-29T01:36:07.681Z,11.59
2018-09-29T01:38:37.444Z,11.58
2018-09-29T01:41:07.732Z,11.55
2018-09-29T01:43:37.407Z,11.40
2018-09-29T01:46:09.530Z,11.18
2018-09-29T01:48:39.788Z,11.19
2018-09-29T01:51:10.182Z,11.26
2018-09-29T01:53:39.690Z,11.36
2018-09-29T01:56:09.338Z,11.41
2018-09-29T01:58:38.724Z,11.42
2018-09-29T02:01:09.029Z,11.39
2018-09-29T02:03:42.926Z,11.30
2018-09-29T02:06:12.511Z,11.10
2018-09-29T02:08:42.746Z,10.87
2018-09-29T02:11:12.927Z,10.63
2018-09-29T02:13:42.553Z,10.59
2018-09-29T02:16:13.012Z,10.65
2018-09-29T02:18:47.582Z,10.64
2018-09-29T02:21:17.033Z,10.50
2018-09-29T02:23:47.482Z,10.42
2018-09-29T02:26:16.741Z,10.38
2018-09-29T02:28:48.127Z,10.41
2018-09-29T02:31:18.227Z,10.45
2018-09-29T02:33:47.698Z,10.42
2018-09-29T02:36:17.694Z,10.45
2018-09-29T02:38:48.118Z,10.54
2018-09-29T02:41:18.753Z,10.60
2018-09-29T02:43:49.352Z,10.59
2018-09-29T02:46:20.751Z,10.62
2018-09-29T02:48:50.333Z,10.67
2018-09-29T02:51:19.896Z,10.54
2018-09-29T02:53:51.345Z,10.51
2018-09-29T02:56:22.756Z,10.51
2018-09-29T02:58:53.405Z,10.46
2018-09-29T03:01:23.432Z,10.35
2018-09-29T03:03:54.075Z,10.34
2018-09-29T03:06:25.142Z,10.27
2018-09-29T03:08:54.841Z,10.25
2018-09-29T03:11:24.032Z,10.19
2018-09-29T03:13:54.080Z,10.13
2018-09-29T03:16:24.703Z,10.12
2018-09-29T03:18:56.292Z,9.95
2018-09-29T03:21:26.028Z,9.77
2018-09-29T03:23:55.791Z,9.87
2018-09-29T03:26:25.027Z,10.02
2018-09-29T03:28:56.170Z,10.10
2018-09-29T03:31:26.214Z,9.98
2018-09-29T03:33:57.052Z,9.85
2018-09-29T03:36:26.687Z,9.81
2018-09-29T03:38:59.437Z,9.76
2018-09-29T03:41:29.658Z,9.65
2018-09-29T03:44:00.883Z,9.65
2018-09-29T03:46:31.588Z,9.64
2018-09-29T03:49:11.231Z,9.63
2018-09-29T03:51:40.709Z,9.59
2018-09-29T03:54:10.211Z,9.56
2018-09-29T03:56:39.958Z,9.50
2018-09-29T03:59:11.234Z,9.48
2018-09-29T04:01:42.682Z,9.61
2018-09-29T04:04:13.572Z,9.46
2018-09-29T04:06:44.287Z,9.37
2018-09-29T04:09:15.914Z,9.26
2018-09-29T04:11:47.529Z,9.25
2018-09-29T04:14:17.704Z,9.14
2018-09-29T04:16:48.690Z,9.07
2018-09-29T04:19:23.306Z,9.05
2018-09-29T04:21:56.868Z,8.92
2018-09-29T04:24:28.367Z,8.76
2018-09-29T04:29:25.882Z,8.75
2018-09-29T04:31:56.345Z,8.80
2018-09-29T04:34:26.601Z,8.87
2018-09-29T04:36:57.226Z,8.79
2018-09-29T04:39:27.218Z,8.59
2018-09-29T04:41:57.693Z,8.73
2018-09-29T04:44:28.643Z,8.72
2018-09-29T04:46:59.691Z,8.80
2018-09-29T04:49:29.463Z,8.84
2018-09-29T04:51:59.633Z,8.88
2018-09-29T04:54:29.537Z,8.88
2018-09-29T04:57:04.461Z,8.91
2018-09-29T04:59:35.956Z,8.75
2018-09-29T05:02:05.986Z,8.64
2018-09-29T05:04:38.096Z,8.65
2018-09-29T05:07:09.443Z,8.57
2018-09-29T05:09:40.322Z,8.52
2018-09-29T05:12:10.073Z,8.47
2018-09-29T05:14:39.908Z,8.53
2018-09-29T05:17:10.593Z,8.62
2018-09-29T05:20:01.229Z,8.63
2018-09-29T05:22:34.591Z,8.65
2018-09-29T05:25:05.003Z,8.70
2018-09-29T05:27:36.031Z,8.79
2018-09-29T05:30:09.182Z,8.73
2018-09-29T05:32:39.571Z,8.71
2018-09-29T05:35:09.446Z,8.82
2018-09-29T05:37:39.460Z,8.82
2018-09-29T05:40:13.263Z,8.83
2018-09-29T05:42:43.553Z,8.87
2018-09-29T05:45:15.669Z,8.93
2018-09-29T05:47:46.700Z,8.94
2018-09-29T05:50:19.438Z,8.96
2018-09-29T05:52:49.772Z,9.04
2018-09-29T05:55:19.770Z,9.05
2018-09-29T05:57:52.645Z,9.01
2018-09-29T06:00:24.179Z,8.93
2018-09-29T06:02:54.013Z,8.89
2018-09-29T06:05:24.146Z,8.99
2018-09-29T06:10:26.137Z,9.19
2018-09-29T06:12:56.402Z,9.32
2018-09-29T06:15:32.449Z,9.28
2018-09-29T06:18:03.393Z,9.20
2018-09-29T06:20:33.467Z,9.15
2018-09-29T06:23:05.669Z,9.19
2018-09-29T06:25:35.377Z,9.29
2018-09-29T06:28:05.592Z,9.37
2018-09-29T06:30:37.807Z,9.52
2018-09-29T06:33:07.722Z,9.72
2018-09-29T06:35:40.259Z,10.12
2018-09-29T06:38:14.081Z,10.54
2018-09-29T06:40:47.992Z,10.96
2018-09-29T06:43:18.393Z,11.32
2018-09-29T06:45:49.666Z,11.66
2018-09-29T06:48:19.329Z,11.74
2018-09-29T06:50:55.054Z,12.08
2018-09-29T06:53:24.859Z,12.19
2018-09-29T06:56:05.942Z,12.52
2018-09-29T06:58:37.540Z,12.86
2018-09-29T07:01:13.811Z,13.21
2018-09-29T07:04:08.876Z,13.37
2018-09-29T07:06:40.459Z,13.64
2018-09-29T07:09:11.543Z,13.66
2018-09-29T07:11:45.185Z,14.05
2018-09-29T07:14:14.913Z,14.20
2018-09-29T07:16:46.035Z,14.53
2018-09-29T07:19:16.335Z,14.83
2018-09-29T07:21:48.600Z,14.69
2018-09-29T07:24:18.352Z,15.06
2018-09-29T07:26:48.766Z,15.46
2018-09-29T07:29:21.947Z,15.69
2018-09-29T07:31:52.755Z,15.80
2018-09-29T07:34:22.756Z,15.77
2018-09-29T07:36:53.076Z,15.76
2018-09-29T07:39:23.105Z,15.80
2018-09-29T07:41:53.761Z,16.11
2018-09-29T07:44:23.940Z,16.00
2018-09-29T07:46:55.785Z,16.00
2018-09-29T07:49:33.801Z,16.24
2018-09-29T07:52:03.934Z,16.41
2018-09-29T07:54:37.241Z,16.32
2018-09-29T07:57:07.707Z,16.77
2018-09-29T07:59:41.657Z,16.87
2018-09-29T08:02:14.473Z,17.16
2018-09-29T08:04:44.731Z,17.47
2018-09-29T08:07:23.028Z,16.73
2018-09-29T08:09:53.368Z,17.44
2018-09-29T08:12:26.747Z,16.99
2018-09-29T08:14:56.621Z,16.80
2018-09-29T08:17:57.880Z,16.85
2018-09-29T08:20:30.555Z,16.84
2018-09-29T08:23:03.324Z,17.14
2018-09-29T08:25:39.502Z,17.33
2018-09-29T08:28:09.988Z,17.66
2018-09-29T08:30:42.432Z,17.63
2018-09-29T08:33:13.066Z,17.85
2018-09-29T08:35:43.094Z,17.26
2018-09-29T08:38:13.879Z,17.60
2018-09-29T08:40:45.762Z,17.70
2018-09-29T08:43:18.935Z,17.19
2018-09-29T08:45:49.864Z,17.57
2018-09-29T08:48:23.181Z,17.98
2018-09-29T08:50:53.784Z,18.31
2018-09-29T08:53:26.887Z,18.71
2018-09-29T08:55:58.700Z,18.88
2018-09-29T08:58:30.541Z,19.11
2018-09-29T09:01:07.238Z,19.36
2018-09-29T09:03:40.249Z,19.57
2018-09-29T09:06:11.984Z,19.64
2018-09-29T09:08:42.785Z,19.93
2018-09-29T09:11:14.326Z,20.48
2018-09-29T09:13:44.730Z,20.97
2018-09-29T09:16:18.980Z,21.14
2018-09-29T09:18:51.053Z,21.05
2018-09-29T09:21:23.009Z,21.13
2018-09-29T09:23:52.511Z,21.34
2018-09-29T09:26:23.240Z,21.55
2018-09-29T09:28:52.833Z,21.60
2018-09-29T09:31:24.302Z,21.94
2018-09-29T09:33:54.340Z,22.35
2018-09-29T09:36:24.375Z,22.46
2018-09-29T09:38:54.538Z,22.22
2018-09-29T09:41:29.672Z,21.91
2018-09-29T09:44:02.428Z,22.19
2018-09-29T09:46:40.088Z,22.12
2018-09-29T09:49:12.206Z,22.43
2018-09-29T09:51:46.087Z,22.11
2018-09-29T09:54:17.495Z,22.10
2018-09-29T09:56:48.515Z,22.29
2018-09-29T09:59:19.713Z,22.71
2018-09-29T10:04:37.766Z,23.49
2018-09-29T10:07:08.857Z,23.06
2018-09-29T10:09:41.413Z,22.99
2018-09-29T10:12:13.760Z,23.88
2018-09-29T10:14:47.005Z,23.56
2018-09-29T10:17:26.510Z,23.52
2018-09-29T10:19:57.705Z,23.94
2018-09-29T10:22:29.879Z,24.20
2018-09-29T10:25:01.951Z,24.09
2018-09-29T10:27:46.792Z,23.87
2018-09-29T10:30:26.740Z,23.79
2018-09-29T10:32:56.773Z,24.35
2018-09-29T10:35:29.219Z,24.42
2018-09-29T10:40:51.560Z,24.56
2018-09-29T10:43:27.957Z,24.21
2018-09-29T10:46:06.145Z,24.59
2018-09-29T10:48:38.923Z,24.34
2018-09-29T10:51:13.495Z,23.91
2018-09-29T10:53:45.979Z,24.64
2018-09-29T10:56:20.247Z,24.93
2018-09-29T10:58:50.373Z,24.45
2018-09-29T11:01:20.937Z,24.79
2018-09-29T11:03:52.825Z,25.76
2018-09-29T11:09:36.267Z,25.75
2018-09-29T11:12:12.485Z,24.93
2018-09-29T11:14:48.294Z,25.06
2018-09-29T11:17:24.465Z,25.20
2018-09-29T11:19:55.949Z,25.07
2018-09-29T11:22:27.255Z,25.80
2018-09-29T11:24:56.982Z,26.49
2018-09-29T11:30:12.799Z,25.65
2018-09-29T11:32:43.436Z,25.13
2018-09-29T11:35:14.619Z,25.79
2018-09-29T11:37:48.074Z,25.33
2018-09-29T11:40:18.584Z,25.07
2018-09-29T11:42:48.662Z,25.27
2018-09-29T11:45:26.252Z,25.33
2018-09-29T11:48:07.755Z,25.55
2018-09-29T11:50:40.540Z,25.61
2018-09-29T11:53:11.312Z,25.43
2018-09-29T11:58:12.623Z,26.23
2018-09-29T12:00:43.242Z,25.98
2018-09-29T12:03:13.388Z,25.90
2018-09-29T12:05:43.301Z,26.25
2018-09-29T12:08:14.141Z,25.50
2018-09-29T12:10:45.786Z,25.17
2018-09-29T12:13:16.355Z,25.59
2018-09-29T12:15:47.701Z,25.87
2018-09-29T12:18:19.016Z,25.64
2018-09-29T12:20:50.442Z,25.21
2018-09-29T12:23:21.032Z,24.80
2018-09-29T12:25:50.518Z,23.23
2018-09-29T12:28:22.162Z,24.37
2018-09-29T12:30:52.600Z,24.48
2018-09-29T12:33:26.793Z,24.88
2018-09-29T12:36:01.015Z,25.11
2018-09-29T12:38:46.678Z,24.75
2018-09-29T12:41:18.949Z,24.98
2018-09-29T12:43:51.424Z,24.34
2018-09-29T12:46:21.949Z,23.41
2018-09-29T12:48:56.821Z,23.69
2018-09-29T12:55:58.803Z,24.69
2018-09-29T12:58:44.448Z,23.54
2018-09-29T13:01:18.585Z,23.86
2018-09-29T13:03:51.609Z,24.50
2018-09-29T13:06:37.656Z,24.31
2018-09-29T13:09:11.206Z,24.95
2018-09-29T13:11:46.771Z,25.40
2018-09-29T13:14:18.359Z,25.56
2018-09-29T13:16:50.393Z,25.57
2018-09-29T13:19:23.615Z,25.13
2018-09-29T13:21:53.353Z,24.65
2018-09-29T13:24:24.100Z,24.02
2018-09-29T13:26:54.272Z,23.71
2018-09-29T13:29:24.439Z,23.76
2018-09-29T13:31:56.810Z,23.67
2018-09-29T13:34:27.200Z,23.42
2018-09-29T13:39:35.773Z,22.55
2018-09-29T13:42:09.718Z,22.28
2018-09-29T13:44:40.541Z,22.17
2018-09-29T13:47:10.343Z,21.72
2018-09-29T13:49:40.687Z,21.79
2018-09-29T13:52:12.821Z,21.62
2018-09-29T13:54:46.938Z,21.29
2018-09-29T13:57:16.967Z,20.97
2018-09-29T13:59:47.255Z,20.86
2018-09-29T14:02:18.436Z,20.71
2018-09-29T14:04:52.999Z,20.69
2018-09-29T14:07:26.381Z,20.34
2018-09-29T14:09:57.158Z,20.20
2018-09-29T14:12:29.537Z,20.03
2018-09-29T14:15:04.432Z,20.11
2018-09-29T14:17:36.039Z,20.13
2018-09-29T14:20:07.058Z,20.35
2018-09-29T14:22:36.656Z,20.61
2018-09-29T14:25:11.695Z,20.93
2018-09-29T14:27:50.857Z,21.28
2018-09-29T14:33:10.555Z,21.18
2018-09-29T14:35:44.005Z,21.15
2018-09-29T14:38:19.282Z,21.13
2018-09-29T14:40:49.211Z,21.07
2018-09-29T14:43:24.195Z,21.24
2018-09-29T14:45:56.950Z,21.35
2018-09-29T14:48:30.813Z,21.14
2018-09-29T14:51:00.500Z,20.71
2018-09-29T14:54:02.323Z,20.32
2018-09-29T14:56:35.850Z,20.41
2018-09-29T14:59:13.046Z,19.95
2018-09-29T15:01:47.154Z,20.18
2018-09-29T15:04:21.446Z,20.24
2018-09-29T15:10:07.450Z,19.71
2018-09-29T15:12:43.520Z,19.71
2018-09-29T15:15:19.335Z,19.70
2018-09-29T15:17:50.144Z,19.60
2018-09-29T15:20:21.402Z,19.43
2018-09-29T15:22:51.043Z,19.35
2018-09-29T15:25:20.790Z,19.35
2018-09-29T15:27:51.135Z,19.41
2018-09-29T15:30:23.832Z,19.65
2018-09-29T15:33:17.894Z,19.54
2018-09-29T15:35:47.472Z,19.43
2018-09-29T15:38:18.659Z,19.27
2018-09-29T15:40:50.640Z,19.05
2018-09-29T15:43:21.607Z,19.33
2018-09-29T15:45:53.944Z,19.31
2018-09-29T15:48:25.936Z,19.44
2018-09-29T15:50:58.170Z,19.27
2018-09-29T15:53:28.423Z,19.30
2018-09-29T15:55:58.740Z,19.20
2018-09-29T15:58:39.643Z,19.08
2018-09-29T16:02:17.391Z,19.01
2018-09-29T16:04:50.467Z,18.95
2018-09-29T16:07:33.486Z,18.99
2018-09-29T16:10:06.465Z,18.99
2018-09-29T16:12:36.389Z,19.27
2018-09-29T16:17:47.460Z,19.14
2018-09-29T16:20:18.926Z,19.06
2018-09-29T16:22:53.998Z,19.01
2018-09-29T16:25:26.348Z,18.90
2018-09-29T16:28:04.217Z,18.46
2018-09-29T16:30:38.170Z,18.75
2018-09-29T16:33:10.098Z,18.69
2018-09-29T16:35:46.254Z,18.76
2018-09-29T16:38:17.444Z,18.65
2018-09-29T16:40:54.275Z,18.71
2018-09-29T16:43:34.175Z,18.79
2018-09-29T16:49:11.721Z,18.72
2018-09-29T16:51:42.044Z,18.63
2018-09-29T16:54:41.743Z,18.58
2018-09-29T16:57:14.363Z,18.39
2018-09-29T16:59:44.907Z,18.35
2018-09-29T17:02:16.305Z,18.34
2018-09-29T17:04:49.349Z,18.21
2018-09-29T17:07:24.520Z,18.14
2018-09-29T17:10:00.471Z,18.11
2018-09-29T17:12:31.155Z,17.84
2018-09-29T17:17:39.291Z,17.81
2018-09-29T17:20:09.808Z,17.72
2018-09-29T17:22:39.532Z,17.62
2018-09-29T17:25:30.315Z,17.63
2018-09-29T17:28:00.237Z,17.69
2018-09-29T17:30:37.116Z,17.69
2018-09-29T17:33:08.787Z,17.68
2018-09-29T17:35:38.239Z,17.63
2018-09-29T17:38:08.982Z,17.66
2018-09-29T17:40:46.119Z,17.67
2018-09-29T17:43:18.516Z,17.69
2018-09-29T17:45:48.574Z,17.67
2018-09-29T17:48:19.290Z,17.52
2018-09-29T17:50:52.794Z,17.49
2018-09-29T17:53:23.687Z,17.43
2018-09-29T17:55:55.607Z,17.43
2018-09-29T17:58:25.059Z,17.35
2018-09-29T18:01:00.534Z,17.19
2018-09-29T18:03:29.938Z,17.08
2018-09-29T18:06:01.188Z,16.97
2018-09-29T18:08:33.101Z,16.97
2018-09-29T18:11:24.535Z,16.83
2018-09-29T18:13:57.209Z,16.78
2018-09-29T18:16:28.566Z,16.79
2018-09-29T18:18:59.377Z,16.80
2018-09-29T18:21:30.474Z,16.68
2018-09-29T18:23:59.918Z,16.69
2018-09-29T18:26:30.059Z,16.60
2018-09-29T18:29:02.190Z,16.57
2018-09-29T18:31:33.751Z,16.49
2018-09-29T18:34:05.509Z,16.45
2018-09-29T18:36:38.031Z,16.41
2018-09-29T18:39:12.511Z,16.22
2018-09-29T18:41:46.191Z,16.24
2018-09-29T18:44:16.689Z,16.18
2018-09-29T18:46:49.095Z,16.18
2018-09-29T18:49:22.756Z,16.28
2018-09-29T18:51:54.040Z,16.24
2018-09-29T18:54:35.608Z,16.14
2018-09-29T18:57:11.563Z,16.07
2018-09-29T18:59:43.571Z,16.05
2018-09-29T19:02:15.925Z,16.04
2018-09-29T19:04:48.456Z,16.01
2018-09-29T19:07:19.284Z,16.02
2018-09-29T19:10:00.055Z,16.03
2018-09-29T19:12:31.371Z,16.05
2018-09-29T19:15:04.445Z,15.91
2018-09-29T19:17:34.954Z,15.84
2018-09-29T19:20:05.596Z,15.78
2018-09-29T19:22:37.597Z,15.66
2018-09-29T19:27:48.735Z,15.77
2018-09-29T19:30:25.231Z,15.81
2018-09-29T19:33:02.186Z,15.21
2018-09-29T19:35:36.229Z,15.71
2018-09-29T19:38:11.874Z,15.72
2018-09-29T19:40:43.496Z,15.72
2018-09-29T19:43:17.456Z,15.62
2018-09-29T19:45:53.778Z,15.52
2018-09-29T19:48:25.067Z,15.44
2018-09-29T19:50:58.625Z,15.37
2018-09-29T19:53:33.904Z,15.20
2018-09-29T19:56:04.827Z,15.18
2018-09-29T19:58:46.159Z,15.09
2018-09-29T20:01:20.373Z,15.12
2018-09-29T20:03:53.255Z,15.09
2018-09-29T20:06:57.796Z,13.08
2018-09-29T20:09:35.548Z,15.11
2018-09-29T20:12:06.440Z,15.03
2018-09-29T20:14:38.430Z,14.84
2018-09-29T20:17:24.412Z,14.89
2018-09-29T20:19:57.516Z,14.82
2018-09-29T20:22:29.649Z,14.87
2018-09-29T20:25:05.187Z,14.90
2018-09-29T20:27:37.559Z,14.80
2018-09-29T20:30:10.237Z,14.77
2018-09-29T20:33:02.855Z,14.83
2018-09-29T20:35:34.357Z,14.81
2018-09-29T20:38:07.074Z,14.63
2018-09-29T20:40:37.754Z,14.61
2018-09-29T20:43:40.392Z,14.69
2018-09-29T20:46:16.625Z,14.59
2018-09-29T20:48:50.610Z,14.55
2018-09-29T20:51:23.518Z,14.60
2018-09-29T20:53:55.022Z,14.65
2018-09-29T20:56:26.084Z,14.64
2018-09-29T20:58:57.768Z,14.60
2018-09-29T21:01:28.095Z,14.46
2018-09-29T21:03:58.560Z,14.30
2018-09-29T21:06:29.728Z,14.36
2018-09-29T21:08:59.192Z,14.36
2018-09-29T21:11:32.164Z,14.31
2018-09-29T21:14:03.520Z,14.21
2018-09-29T21:16:34.031Z,14.13
2018-09-29T21:19:05.027Z,14.13
2018-09-29T21:21:36.299Z,14.17
2018-09-29T21:24:12.291Z,14.12
2018-09-29T21:26:44.019Z,14.11
2018-09-29T21:29:13.308Z,14.05
2018-09-29T21:31:43.635Z,14.03
2018-09-29T21:34:13.637Z,13.96
2018-09-29T21:36:46.237Z,13.94
2018-09-29T21:39:23.719Z,13.91
2018-09-29T21:42:01.537Z,13.78
2018-09-29T21:44:34.264Z,13.76
2018-09-29T21:47:15.114Z,13.66
2018-09-29T21:49:48.158Z,13.55
2018-09-29T21:52:20.220Z,13.59
2018-09-29T21:54:50.258Z,13.62
2018-09-29T21:57:23.926Z,13.65
2018-09-29T21:59:53.398Z,13.66
2018-09-29T22:02:23.390Z,13.59
2018-09-29T22:04:55.120Z,13.61
2018-09-29T22:07:28.508Z,13.60
2018-09-29T22:09:58.391Z,13.58
2018-09-29T22:12:28.313Z,13.45
2018-09-29T22:14:58.458Z,13.45
2018-09-29T22:17:28.964Z,13.35
2018-09-29T22:19:59.151Z,13.23
2018-09-29T22:22:28.669Z,13.22
2018-09-29T22:24:59.567Z,13.11
2018-09-29T22:27:28.992Z,13.01
2018-09-29T22:29:59.516Z,13.05
2018-09-29T22:32:33.481Z,12.97
2018-09-29T22:35:03.204Z,12.73
2018-09-29T22:37:33.305Z,13.02
2018-09-29T22:40:18.707Z,12.99
2018-09-29T22:42:48.365Z,13.00
2018-09-29T22:45:20.403Z,13.03
2018-09-29T22:47:50.559Z,12.98
2018-09-29T22:50:22.354Z,12.92
2018-09-29T22:52:53.219Z,12.95
2018-09-29T22:55:23.102Z,12.98
2018-09-29T22:57:53.604Z,12.96
2018-09-29T23:00:24.389Z,12.93
2018-09-29T23:02:54.244Z,12.90
2018-09-29T23:05:23.574Z,12.96
2018-09-29T23:07:53.977Z,12.96
2018-09-29T23:10:23.868Z,13.01
2018-09-29T23:12:54.281Z,12.97
2018-09-29T23:15:23.930Z,12.87
2018-09-29T23:17:57.030Z,12.82
2018-09-29T23:20:27.373Z,12.83
2018-09-29T23:22:59.290Z,12.87
2018-09-29T23:25:30.694Z,12.77
2018-09-29T23:28:01.739Z,12.80
2018-09-29T23:30:34.092Z,12.83
2018-09-29T23:33:04.388Z,12.81
2018-09-29T23:35:33.711Z,12.74
2018-09-29T23:38:04.360Z,12.79
2018-09-29T23:40:34.451Z,12.67
2018-09-29T23:43:06.259Z,12.62
2018-09-29T23:45:38.391Z,12.54
2018-09-29T23:48:13.250Z,12.43
2018-09-29T23:50:43.422Z,12.36
2018-09-29T23:53:13.471Z,12.35
2018-09-29T23:55:44.260Z,12.25
2018-09-29T23:58:14.597Z,12.31
